sensor_id;sensor_type;location;lat;lon;timestamp;pressure;altitude;pressure_sealevel;temperature;humidity
84483;BME280;74703;51.284;22.590;2024-03-29T00:02:15;97715.38;;;8.59;70.54
84483;BME280;74703;51.284;22.590;2024-03-29T00:07:15;97713.34;;;8.64;70.15
84483;BME280;74703;51.284;22.590;2024-03-29T00:12:16;97710.22;;;8.71;69.47
84483;BME280;74703;51.284;22.590;2024-03-29T00:17:16;97709.09;;;8.76;69.15
84483;BME280;74703;51.284;22.590;2024-03-29T00:22:18;97720.91;;;8.80;69.25
84483;BME280;74703;51.284;22.590;2024-03-29T00:27:19;97727.84;;;8.79;68.81
84483;BME280;74703;51.284;22.590;2024-03-29T00:32:21;97727.03;;;8.79;69.38
84483;BME280;74703;51.284;22.590;2024-03-29T00:37:24;97740.94;;;8.78;69.53
84483;BME280;74703;51.284;22.590;2024-03-29T00:42:25;97734.19;;;8.75;69.24
84483;BME280;74703;51.284;22.590;2024-03-29T00:47:25;97746.00;;;8.79;69.04
84483;BME280;74703;51.284;22.590;2024-03-29T00:52:26;97733.13;;;8.65;69.37
84483;BME280;74703;51.284;22.590;2024-03-29T00:57:26;97777.94;;;8.80;69.34
84483;BME280;74703;51.284;22.590;2024-03-29T01:02:27;97817.69;;;9.18;67.61
84483;BME280;74703;51.284;22.590;2024-03-29T01:07:27;97815.69;;;9.60;65.76
84483;BME280;74703;51.284;22.590;2024-03-29T01:12:29;97828.16;;;9.55;66.17
84483;BME280;74703;51.284;22.590;2024-03-29T01:17:29;97830.84;;;9.54;66.42
84483;BME280;74703;51.284;22.590;2024-03-29T01:22:30;97841.88;;;9.45;67.01
84483;BME280;74703;51.284;22.590;2024-03-29T01:27:31;97852.03;;;9.22;67.98
84483;BME280;74703;51.284;22.590;2024-03-29T01:32:31;97849.56;;;9.08;68.73
84483;BME280;74703;51.284;22.590;2024-03-29T01:37:32;97852.72;;;8.73;70.38
84483;BME280;74703;51.284;22.590;2024-03-29T01:42:32;97873.97;;;8.65;71.55
84483;BME280;74703;51.284;22.590;2024-03-29T01:47:33;97894.97;;;8.48;72.91
84483;BME280;74703;51.284;22.590;2024-03-29T01:52:34;97904.16;;;8.39;74.26
84483;BME280;74703;51.284;22.590;2024-03-29T01:57:35;97894.28;;;8.17;75.43
84483;BME280;74703;51.284;22.590;2024-03-29T02:02:36;97933.22;;;8.30;75.76
84483;BME280;74703;51.284;22.590;2024-03-29T02:07:38;97959.56;;;8.37;76.65
84483;BME280;74703;51.284;22.590;2024-03-29T02:12:39;97955.16;;;8.24;78.04
84483;BME280;74703;51.284;22.590;2024-03-29T02:17:40;97968.56;;;8.17;79.72
84483;BME280;74703;51.284;22.590;2024-03-29T02:22:46;97989.22;;;8.04;81.61
84483;BME280;74703;51.284;22.590;2024-03-29T02:27:52;98003.72;;;7.92;81.94
84483;BME280;74703;51.284;22.590;2024-03-29T02:32:54;98013.38;;;7.90;81.64
84483;BME280;74703;51.284;22.590;2024-03-29T02:37:54;98027.03;;;7.78;81.50
84483;BME280;74703;51.284;22.590;2024-03-29T02:42:55;98031.28;;;7.79;81.17
84483;BME280;74703;51.284;22.590;2024-03-29T02:47:55;98053.38;;;7.70;81.65
84483;BME280;74703;51.284;22.590;2024-03-29T02:52:56;98054.44;;;7.52;81.79
84483;BME280;74703;51.284;22.590;2024-03-29T02:57:59;98081.06;;;7.54;81.60
84483;BME280;74703;51.284;22.590;2024-03-29T03:02:59;98096.94;;;7.48;80.53
84483;BME280;74703;51.284;22.590;2024-03-29T03:08:00;98101.47;;;7.28;81.15
84483;BME280;74703;51.284;22.590;2024-03-29T03:13:19;98128.69;;;7.04;82.80
84483;BME280;74703;51.284;22.590;2024-03-29T03:18:20;98144.81;;;6.93;84.23
84483;BME280;74703;51.284;22.590;2024-03-29T03:23:20;98150.22;;;6.88;85.40
84483;BME280;74703;51.284;22.590;2024-03-29T03:28:22;98191.75;;;6.85;86.49
84483;BME280;74703;51.284;22.590;2024-03-29T03:33:23;98203.56;;;6.74;87.81
84483;BME280;74703;51.284;22.590;2024-03-29T03:38:23;98208.97;;;6.69;88.03
84483;BME280;74703;51.284;22.590;2024-03-29T03:43:24;98214.22;;;6.50;88.61
84483;BME280;74703;51.284;22.590;2024-03-29T03:48:24;98244.56;;;6.64;89.38
84483;BME280;74703;51.284;22.590;2024-03-29T03:53:25;98248.94;;;6.62;89.48
84483;BME280;74703;51.284;22.590;2024-03-29T03:58:26;98259.03;;;6.51;88.90
84483;BME280;74703;51.284;22.590;2024-03-29T04:03:26;98268.28;;;6.55;88.36
84483;BME280;74703;51.284;22.590;2024-03-29T04:08:27;98267.75;;;6.31;89.09
84483;BME280;74703;51.284;22.590;2024-03-29T04:13:27;98281.34;;;6.34;89.59
84483;BME280;74703;51.284;22.590;2024-03-29T04:18:28;98300.44;;;6.49;88.69
84483;BME280;74703;51.284;22.590;2024-03-29T04:23:29;98301.47;;;6.28;88.63
84483;BME280;74703;51.284;22.590;2024-03-29T04:28:29;98313.03;;;6.55;87.58
84483;BME280;74703;51.284;22.590;2024-03-29T04:33:30;98314.31;;;6.47;88.30
84483;BME280;74703;51.284;22.590;2024-03-29T04:38:31;98323.69;;;6.49;88.00
84483;BME280;74703;51.284;22.590;2024-03-29T04:43:32;98347.47;;;6.56;87.54
84483;BME280;74703;51.284;22.590;2024-03-29T04:48:32;98352.63;;;6.56;87.53
84483;BME280;74703;51.284;22.590;2024-03-29T04:53:35;98361.19;;;6.75;86.56
84483;BME280;74703;51.284;22.590;2024-03-29T04:58:36;98367.41;;;6.88;86.22
84483;BME280;74703;51.284;22.590;2024-03-29T05:03:36;98391.22;;;7.46;84.71
84483;BME280;74703;51.284;22.590;2024-03-29T05:08:37;98388.88;;;7.90;82.37
84483;BME280;74703;51.284;22.590;2024-03-29T05:13:37;98395.72;;;7.75;81.62
84483;BME280;74703;51.284;22.590;2024-03-29T05:18:38;98412.56;;;7.67;82.28
84483;BME280;74703;51.284;22.590;2024-03-29T05:23:39;98419.22;;;8.04;82.16
84483;BME280;74703;51.284;22.590;2024-03-29T05:28:39;98409.75;;;8.35;78.35
84483;BME280;74703;51.284;22.590;2024-03-29T05:33:43;98425.59;;;8.14;79.83
84483;BME280;74703;51.284;22.590;2024-03-29T05:38:45;98410.28;;;7.94;79.40
84483;BME280;74703;51.284;22.590;2024-03-29T05:43:46;98424.47;;;7.87;79.91
84483;BME280;74703;51.284;22.590;2024-03-29T05:48:46;98427.63;;;7.76;79.13
84483;BME280;74703;51.284;22.590;2024-03-29T05:53:47;98430.03;;;7.46;80.26
84483;BME280;74703;51.284;22.590;2024-03-29T05:58:47;98447.13;;;7.15;81.55
84483;BME280;74703;51.284;22.590;2024-03-29T06:03:48;98439.81;;;7.23;81.33
84483;BME280;74703;51.284;22.590;2024-03-29T06:08:49;98448.38;;;7.58;81.09
84483;BME280;74703;51.284;22.590;2024-03-29T06:13:50;98462.75;;;8.13;80.35
84483;BME280;74703;51.284;22.590;2024-03-29T06:18:53;98485.97;;;8.48;78.84
84483;BME280;74703;51.284;22.590;2024-03-29T06:23:53;98490.16;;;8.66;76.75
84483;BME280;74703;51.284;22.590;2024-03-29T06:28:54;98495.59;;;8.78;77.44
84483;BME280;74703;51.284;22.590;2024-03-29T06:33:56;98477.66;;;8.89;75.50
84483;BME280;74703;51.284;22.590;2024-03-29T06:38:58;98484.38;;;9.07;75.11
84483;BME280;74703;51.284;22.590;2024-03-29T06:43:58;98487.50;;;8.98;74.22
84483;BME280;74703;51.284;22.590;2024-03-29T06:48:59;98516.72;;;9.32;73.90
84483;BME280;74703;51.284;22.590;2024-03-29T06:53:59;98520.63;;;9.69;71.58
84483;BME280;74703;51.284;22.590;2024-03-29T06:59:00;98527.78;;;9.80;72.10
84483;BME280;74703;51.284;22.590;2024-03-29T07:04:01;98540.72;;;10.10;70.73
84483;BME280;74703;51.284;22.590;2024-03-29T07:09:01;98544.44;;;10.06;67.80
84483;BME280;74703;51.284;22.590;2024-03-29T07:14:03;98567.44;;;10.12;68.40
84483;BME280;74703;51.284;22.590;2024-03-29T07:19:05;98576.97;;;10.42;67.96
84483;BME280;74703;51.284;22.590;2024-03-29T07:24:05;98575.47;;;10.66;67.61
84483;BME280;74703;51.284;22.590;2024-03-29T07:29:06;98593.75;;;10.79;65.62
84483;BME280;74703;51.284;22.590;2024-03-29T07:34:07;98565.66;;;10.84;65.79
84483;BME280;74703;51.284;22.590;2024-03-29T07:39:08;98568.97;;;11.00;64.11
84483;BME280;74703;51.284;22.590;2024-03-29T07:44:08;98583.59;;;11.16;62.50
84483;BME280;74703;51.284;22.590;2024-03-29T07:49:09;98596.50;;;11.05;63.95
84483;BME280;74703;51.284;22.590;2024-03-29T07:54:10;98590.78;;;11.12;63.15
84483;BME280;74703;51.284;22.590;2024-03-29T07:59:10;98591.00;;;11.49;62.60
84483;BME280;74703;51.284;22.590;2024-03-29T08:04:11;98595.88;;;11.68;62.72
84483;BME280;74703;51.284;22.590;2024-03-29T08:09:12;98600.34;;;12.06;61.85
84483;BME280;74703;51.284;22.590;2024-03-29T08:14:14;98605.41;;;11.95;59.62
84483;BME280;74703;51.284;22.590;2024-03-29T08:19:14;98601.69;;;12.11;59.09
84483;BME280;74703;51.284;22.590;2024-03-29T08:24:15;98612.53;;;12.05;58.62
84483;BME280;74703;51.284;22.590;2024-03-29T08:29:16;98604.41;;;12.48;58.92
84483;BME280;74703;51.284;22.590;2024-03-29T08:34:16;98615.22;;;12.68;58.29
84483;BME280;74703;51.284;22.590;2024-03-29T08:39:17;98613.84;;;12.88;58.19
84483;BME280;74703;51.284;22.590;2024-03-29T08:44:18;98607.53;;;13.03;55.51
84483;BME280;74703;51.284;22.590;2024-03-29T08:49:19;98599.66;;;13.28;54.48
84483;BME280;74703;51.284;22.590;2024-03-29T08:54:19;98597.47;;;13.10;53.03
84483;BME280;74703;51.284;22.590;2024-03-29T08:59:20;98607.88;;;12.86;52.78
84483;BME280;74703;51.284;22.590;2024-03-29T09:04:20;98608.78;;;13.10;54.72
84483;BME280;74703;51.284;22.590;2024-03-29T09:09:21;98615.25;;;13.41;52.44
84483;BME280;74703;51.284;22.590;2024-03-29T09:14:22;98627.06;;;13.47;52.73
84483;BME280;74703;51.284;22.590;2024-03-29T09:19:24;98612.25;;;13.59;56.43
84483;BME280;74703;51.284;22.590;2024-03-29T09:24:25;98631.34;;;13.83;54.09
84483;BME280;74703;51.284;22.590;2024-03-29T09:29:27;98633.13;;;13.83;53.46
84483;BME280;74703;51.284;22.590;2024-03-29T09:34:28;98621.81;;;14.17;53.93
84483;BME280;74703;51.284;22.590;2024-03-29T09:39:29;98616.34;;;14.20;49.79
84483;BME280;74703;51.284;22.590;2024-03-29T09:44:32;98629.16;;;14.12;51.04
84483;BME280;74703;51.284;22.590;2024-03-29T09:49:37;98623.69;;;14.04;50.01
84483;BME280;74703;51.284;22.590;2024-03-29T09:54:39;98630.38;;;14.19;51.60
84483;BME280;74703;51.284;22.590;2024-03-29T09:59:39;98653.31;;;14.74;49.77
84483;BME280;74703;51.284;22.590;2024-03-29T10:04:40;98644.63;;;14.84;49.61
84483;BME280;74703;51.284;22.590;2024-03-29T10:09:45;98644.47;;;15.08;47.51
84483;BME280;74703;51.284;22.590;2024-03-29T10:14:48;98661.16;;;14.85;47.47
84483;BME280;74703;51.284;22.590;2024-03-29T10:20:07;98655.03;;;14.28;48.86
84483;BME280;74703;51.284;22.590;2024-03-29T10:25:08;98636.56;;;14.18;50.15
84483;BME280;74703;51.284;22.590;2024-03-29T10:30:09;98656.53;;;14.77;49.26
84483;BME280;74703;51.284;22.590;2024-03-29T10:35:11;98669.47;;;15.24;47.43
84483;BME280;74703;51.284;22.590;2024-03-29T10:40:11;98664.56;;;15.30;46.53
84483;BME280;74703;51.284;22.590;2024-03-29T10:45:16;98663.94;;;15.49;47.59
84483;BME280;74703;51.284;22.590;2024-03-29T10:50:19;98658.66;;;15.72;48.15
84483;BME280;74703;51.284;22.590;2024-03-29T10:55:21;98680.38;;;15.51;46.89
84483;BME280;74703;51.284;22.590;2024-03-29T11:00:23;98652.09;;;15.55;46.59
84483;BME280;74703;51.284;22.590;2024-03-29T11:05:26;98659.31;;;15.85;47.96
84483;BME280;74703;51.284;22.590;2024-03-29T11:10:35;98676.97;;;15.83;47.70
84483;BME280;74703;51.284;22.590;2024-03-29T11:15:38;98678.22;;;15.68;47.90
84483;BME280;74703;51.284;22.590;2024-03-29T11:20:41;98682.59;;;15.78;47.12
84483;BME280;74703;51.284;22.590;2024-03-29T11:25:49;98673.84;;;15.89;47.92
84483;BME280;74703;51.284;22.590;2024-03-29T11:30:51;98670.22;;;16.22;46.63
84483;BME280;74703;51.284;22.590;2024-03-29T11:35:54;98674.66;;;16.22;45.32
84483;BME280;74703;51.284;22.590;2024-03-29T11:41:01;98678.72;;;16.15;45.92
84483;BME280;74703;51.284;22.590;2024-03-29T11:46:06;98671.00;;;16.13;44.09
84483;BME280;74703;51.284;22.590;2024-03-29T11:51:08;98654.31;;;15.82;46.62
84483;BME280;74703;51.284;22.590;2024-03-29T11:56:11;98659.47;;;16.05;45.10
84483;BME280;74703;51.284;22.590;2024-03-29T12:01:14;98667.34;;;16.05;43.80
84483;BME280;74703;51.284;22.590;2024-03-29T12:06:15;98671.63;;;16.06;45.41
84483;BME280;74703;51.284;22.590;2024-03-29T12:11:17;98664.25;;;16.41;45.32
84483;BME280;74703;51.284;22.590;2024-03-29T12:16:18;98679.25;;;16.51;45.64
84483;BME280;74703;51.284;22.590;2024-03-29T12:21:18;98653.44;;;16.35;44.82
84483;BME280;74703;51.284;22.590;2024-03-29T12:26:19;98650.88;;;16.44;44.26
84483;BME280;74703;51.284;22.590;2024-03-29T12:31:22;98661.25;;;16.46;44.93
84483;BME280;74703;51.284;22.590;2024-03-29T12:36:23;98653.72;;;16.62;41.75
84483;BME280;74703;51.284;22.590;2024-03-29T12:41:26;98663.22;;;16.54;41.30
84483;BME280;74703;51.284;22.590;2024-03-29T12:46:29;98672.34;;;16.49;41.12
84483;BME280;74703;51.284;22.590;2024-03-29T12:51:29;98675.34;;;16.45;39.84
84483;BME280;74703;51.284;22.590;2024-03-29T12:56:31;98656.06;;;16.56;41.80
84483;BME280;74703;51.284;22.590;2024-03-29T13:01:33;98667.84;;;16.61;40.96
84483;BME280;74703;51.284;22.590;2024-03-29T13:06:33;98655.00;;;16.68;38.75
84483;BME280;74703;51.284;22.590;2024-03-29T13:11:34;98656.47;;;16.61;39.21
84483;BME280;74703;51.284;22.590;2024-03-29T13:16:35;98657.38;;;16.71;36.87
84483;BME280;74703;51.284;22.590;2024-03-29T13:21:35;98677.38;;;16.83;37.28
84483;BME280;74703;51.284;22.590;2024-03-29T13:26:37;98653.16;;;16.80;37.68
84483;BME280;74703;51.284;22.590;2024-03-29T13:31:37;98665.91;;;16.94;39.84
84483;BME280;74703;51.284;22.590;2024-03-29T13:36:39;98656.28;;;17.04;38.22
84483;BME280;74703;51.284;22.590;2024-03-29T13:41:39;98657.13;;;17.05;38.17
84483;BME280;74703;51.284;22.590;2024-03-29T13:46:40;98653.75;;;16.93;37.75
84483;BME280;74703;51.284;22.590;2024-03-29T13:51:41;98645.28;;;16.80;38.00
84483;BME280;74703;51.284;22.590;2024-03-29T13:56:41;98645.41;;;16.78;37.61
84483;BME280;74703;51.284;22.590;2024-03-29T14:01:43;98652.47;;;16.87;37.42
84483;BME280;74703;51.284;22.590;2024-03-29T14:06:43;98644.03;;;16.84;36.93
84483;BME280;74703;51.284;22.590;2024-03-29T14:11:44;98649.19;;;16.85;37.19
84483;BME280;74703;51.284;22.590;2024-03-29T14:16:45;98655.81;;;16.89;35.24
84483;BME280;74703;51.284;22.590;2024-03-29T14:21:45;98660.09;;;16.90;34.35
84483;BME280;74703;51.284;22.590;2024-03-29T14:26:46;98652.50;;;16.66;35.81
84483;BME280;74703;51.284;22.590;2024-03-29T14:31:50;98654.63;;;16.52;37.88
84483;BME280;74703;51.284;22.590;2024-03-29T14:36:51;98671.31;;;16.41;37.49
84483;BME280;74703;51.284;22.590;2024-03-29T14:41:52;98682.25;;;16.46;37.62
84483;BME280;74703;51.284;22.590;2024-03-29T14:46:52;98685.31;;;16.51;37.68
84483;BME280;74703;51.284;22.590;2024-03-29T14:51:53;98681.22;;;16.58;38.19
84483;BME280;74703;51.284;22.590;2024-03-29T14:56:53;98673.78;;;16.63;36.09
84483;BME280;74703;51.284;22.590;2024-03-29T15:01:54;98670.06;;;16.66;36.25
84483;BME280;74703;51.284;22.590;2024-03-29T15:06:55;98675.56;;;16.84;34.53
84483;BME280;74703;51.284;22.590;2024-03-29T15:11:55;98655.78;;;16.80;35.62
84483;BME280;74703;51.284;22.590;2024-03-29T15:16:56;98658.47;;;16.68;35.46
84483;BME280;74703;51.284;22.590;2024-03-29T15:21:56;98659.69;;;16.64;36.54
84483;BME280;74703;51.284;22.590;2024-03-29T15:26:57;98650.13;;;16.63;34.88
84483;BME280;74703;51.284;22.590;2024-03-29T15:31:58;98651.16;;;16.72;35.68
84483;BME280;74703;51.284;22.590;2024-03-29T15:36:59;98657.81;;;16.76;36.18
84483;BME280;74703;51.284;22.590;2024-03-29T15:41:59;98655.75;;;16.49;36.68
84483;BME280;74703;51.284;22.590;2024-03-29T15:47:00;98657.59;;;16.58;36.32
84483;BME280;74703;51.284;22.590;2024-03-29T15:52:01;98654.03;;;18.27;33.50
84483;BME280;74703;51.284;22.590;2024-03-29T15:57:02;98663.13;;;18.62;32.91
84483;BME280;74703;51.284;22.590;2024-03-29T16:02:04;98666.38;;;17.59;34.83
84483;BME280;74703;51.284;22.590;2024-03-29T16:07:04;98678.28;;;16.52;37.26
84483;BME280;74703;51.284;22.590;2024-03-29T16:12:05;98669.72;;;15.75;39.23
84483;BME280;74703;51.284;22.590;2024-03-29T16:17:06;98696.38;;;15.37;40.15
84483;BME280;74703;51.284;22.590;2024-03-29T16:22:07;98696.63;;;15.00;40.84
84483;BME280;74703;51.284;22.590;2024-03-29T16:27:09;98683.19;;;14.71;41.38
84483;BME280;74703;51.284;22.590;2024-03-29T16:32:09;98689.53;;;14.44;42.95
84483;BME280;74703;51.284;22.590;2024-03-29T16:37:12;98668.44;;;14.24;43.04
84483;BME280;74703;51.284;22.590;2024-03-29T16:42:12;98685.28;;;14.08;42.73
84483;BME280;74703;51.284;22.590;2024-03-29T16:47:13;98672.00;;;13.87;44.13
84483;BME280;74703;51.284;22.590;2024-03-29T16:52:13;98666.91;;;13.62;44.14
84483;BME280;74703;51.284;22.590;2024-03-29T16:57:17;98674.75;;;13.38;44.08
84483;BME280;74703;51.284;22.590;2024-03-29T17:02:18;98692.13;;;13.13;45.20
84483;BME280;74703;51.284;22.590;2024-03-29T17:07:18;98691.00;;;12.79;46.97
84483;BME280;74703;51.284;22.590;2024-03-29T17:12:19;98691.03;;;12.53;49.31
84483;BME280;74703;51.284;22.590;2024-03-29T17:17:20;98679.59;;;12.16;52.93
84483;BME280;74703;51.284;22.590;2024-03-29T17:22:22;98679.84;;;11.86;51.58
84483;BME280;74703;51.284;22.590;2024-03-29T17:27:23;98680.31;;;11.51;54.86
84483;BME280;74703;51.284;22.590;2024-03-29T17:32:23;98685.38;;;10.98;57.74
84483;BME280;74703;51.284;22.590;2024-03-29T17:37:24;98685.78;;;10.34;59.55
84483;BME280;74703;51.284;22.590;2024-03-29T17:42:24;98696.47;;;9.83;61.73
84483;BME280;74703;51.284;22.590;2024-03-29T17:47:25;98678.34;;;9.20;62.18
84483;BME280;74703;51.284;22.590;2024-03-29T17:52:25;98692.75;;;9.09;62.82
84483;BME280;74703;51.284;22.590;2024-03-29T17:57:26;98685.03;;;8.92;63.80
84483;BME280;74703;51.284;22.590;2024-03-29T18:02:27;98695.41;;;8.92;65.75
84483;BME280;74703;51.284;22.590;2024-03-29T18:07:27;98705.38;;;8.32;67.15
84483;BME280;74703;51.284;22.590;2024-03-29T18:12:28;98704.03;;;8.07;65.85
84483;BME280;74703;51.284;22.590;2024-03-29T18:17:28;98720.66;;;8.03;65.95
84483;BME280;74703;51.284;22.590;2024-03-29T18:22:29;98738.97;;;7.98;69.55
84483;BME280;74703;51.284;22.590;2024-03-29T18:27:29;98740.44;;;7.50;71.21
84483;BME280;74703;51.284;22.590;2024-03-29T18:32:30;98729.88;;;7.17;71.66
84483;BME280;74703;51.284;22.590;2024-03-29T18:37:31;98737.78;;;7.14;72.60
84483;BME280;74703;51.284;22.590;2024-03-29T18:42:31;98727.66;;;6.89;73.11
84483;BME280;74703;51.284;22.590;2024-03-29T18:47:32;98744.31;;;6.63;72.65
84483;BME280;74703;51.284;22.590;2024-03-29T18:52:33;98726.81;;;6.49;72.66
84483;BME280;74703;51.284;22.590;2024-03-29T18:57:33;98740.16;;;6.59;73.78
84483;BME280;74703;51.284;22.590;2024-03-29T19:02:34;98739.56;;;6.54;75.89
84483;BME280;74703;51.284;22.590;2024-03-29T19:07:35;98735.47;;;6.28;75.80
84483;BME280;74703;51.284;22.590;2024-03-29T19:12:35;98745.66;;;6.10;77.09
84483;BME280;74703;51.284;22.590;2024-03-29T19:17:36;98739.34;;;5.95;77.25
84483;BME280;74703;51.284;22.590;2024-03-29T19:22:36;98730.31;;;5.84;76.81
84483;BME280;74703;51.284;22.590;2024-03-29T19:27:37;98734.97;;;5.97;77.95
84483;BME280;74703;51.284;22.590;2024-03-29T19:32:38;98737.00;;;5.89;77.00
84483;BME280;74703;51.284;22.590;2024-03-29T19:37:38;98728.28;;;6.14;78.04
84483;BME280;74703;51.284;22.590;2024-03-29T19:42:41;98713.56;;;6.16;76.90
84483;BME280;74703;51.284;22.590;2024-03-29T19:47:41;98722.38;;;6.72;75.67
84483;BME280;74703;51.284;22.590;2024-03-29T19:52:44;98708.16;;;7.20;72.75
84483;BME280;74703;51.284;22.590;2024-03-29T19:57:46;98714.97;;;7.77;70.95
84483;BME280;74703;51.284;22.590;2024-03-29T20:02:47;98717.13;;;8.21;69.35
84483;BME280;74703;51.284;22.590;2024-03-29T20:07:49;98713.34;;;8.46;69.02
84483;BME280;74703;51.284;22.590;2024-03-29T20:12:49;98717.06;;;8.75;68.54
84483;BME280;74703;51.284;22.590;2024-03-29T20:17:50;98716.63;;;8.83;68.14
84483;BME280;74703;51.284;22.590;2024-03-29T20:22:50;98717.03;;;9.08;68.20
84483;BME280;74703;51.284;22.590;2024-03-29T20:27:52;98715.78;;;9.15;67.51
84483;BME280;74703;51.284;22.590;2024-03-29T20:32:53;98715.72;;;9.17;67.82
84483;BME280;74703;51.284;22.590;2024-03-29T20:37:53;98715.13;;;9.28;67.81
84483;BME280;74703;51.284;22.590;2024-03-29T20:42:55;98707.16;;;9.15;68.28
84483;BME280;74703;51.284;22.590;2024-03-29T20:47:56;98703.97;;;9.10;68.46
84483;BME280;74703;51.284;22.590;2024-03-29T20:52:56;98709.81;;;9.13;68.43
84483;BME280;74703;51.284;22.590;2024-03-29T20:58:00;98708.47;;;9.06;69.17
84483;BME280;74703;51.284;22.590;2024-03-29T21:03:00;98713.13;;;9.17;69.24
84483;BME280;74703;51.284;22.590;2024-03-29T21:08:19;98722.63;;;9.16;69.44
84483;BME280;74703;51.284;22.590;2024-03-29T21:13:20;98714.50;;;9.23;69.38
84483;BME280;74703;51.284;22.590;2024-03-29T21:18:21;98725.66;;;9.25;69.46
84483;BME280;74703;51.284;22.590;2024-03-29T21:23:21;98713.13;;;9.17;69.40
84483;BME280;74703;51.284;22.590;2024-03-29T21:28:22;98727.75;;;9.18;69.60
84483;BME280;74703;51.284;22.590;2024-03-29T21:33:22;98741.66;;;9.17;69.76
84483;BME280;74703;51.284;22.590;2024-03-29T21:38:23;98728.63;;;9.01;70.03
84483;BME280;74703;51.284;22.590;2024-03-29T21:43:24;98736.19;;;9.06;70.14
84483;BME280;74703;51.284;22.590;2024-03-29T21:48:26;98736.09;;;9.07;70.51
84483;BME280;74703;51.284;22.590;2024-03-29T21:53:27;98731.94;;;9.05;70.60
84483;BME280;74703;51.284;22.590;2024-03-29T21:58:27;98720.44;;;8.93;70.48
84483;BME280;74703;51.284;22.590;2024-03-29T22:03:28;98719.00;;;8.87;70.96
84483;BME280;74703;51.284;22.590;2024-03-29T22:08:28;98734.06;;;8.81;71.68
84483;BME280;74703;51.284;22.590;2024-03-29T22:13:29;98726.44;;;8.78;71.73
84483;BME280;74703;51.284;22.590;2024-03-29T22:18:30;98715.59;;;8.69;72.41
84483;BME280;74703;51.284;22.590;2024-03-29T22:23:31;98718.41;;;8.65;72.40
84483;BME280;74703;51.284;22.590;2024-03-29T22:28:33;98705.34;;;8.51;72.74
84483;BME280;74703;51.284;22.590;2024-03-29T22:33:34;98705.06;;;8.38;73.17
84483;BME280;74703;51.284;22.590;2024-03-29T22:38:34;98708.91;;;8.31;73.94
84483;BME280;74703;51.284;22.590;2024-03-29T22:43:35;98716.38;;;8.19;74.33
84483;BME280;74703;51.284;22.590;2024-03-29T22:48:36;98708.00;;;8.14;74.76
84483;BME280;74703;51.284;22.590;2024-03-29T22:53:36;98711.78;;;8.07;75.37
84483;BME280;74703;51.284;22.590;2024-03-29T22:58:37;98712.41;;;7.95;75.86
84483;BME280;74703;51.284;22.590;2024-03-29T23:03:37;98724.03;;;7.86;76.12
84483;BME280;74703;51.284;22.590;2024-03-29T23:08:38;98722.91;;;7.92;76.94
84483;BME280;74703;51.284;22.590;2024-03-29T23:13:39;98736.47;;;7.97;77.17
84483;BME280;74703;51.284;22.590;2024-03-29T23:18:39;98732.47;;;8.09;77.04
84483;BME280;74703;51.284;22.590;2024-03-29T23:23:40;98726.44;;;8.08;77.16
84483;BME280;74703;51.284;22.590;2024-03-29T23:28:40;98736.72;;;8.10;77.17
84483;BME280;74703;51.284;22.590;2024-03-29T23:33:41;98726.28;;;7.94;77.23
84483;BME280;74703;51.284;22.590;2024-03-29T23:38:41;98719.16;;;7.80;77.99
84483;BME280;74703;51.284;22.590;2024-03-29T23:43:42;98700.81;;;7.48;77.74
84483;BME280;74703;51.284;22.590;2024-03-29T23:48:42;98703.63;;;7.44;78.80
84483;BME280;74703;51.284;22.590;2024-03-29T23:53:43;98707.19;;;7.41;79.04
84483;BME280;74703;51.284;22.590;2024-03-29T23:58:43;98698.53;;;7.23;77.99
